sensor_id;sensor_type;location;lat;lon;timestamp;pressure;altitude;pressure_sealevel;temperature;humidity
23733;BME280;12047;53.450;-2.286;2022-10-16T00:00:10;99540.91;;;20.17;100.00
23733;BME280;12047;53.450;-2.286;2022-10-16T00:05:10;99568.38;;;21.49;100.00
23733;BME280;12047;53.450;-2.286;2022-10-16T00:10:11;99558.16;;;21.63;100.00
23733;BME280;12047;53.450;-2.286;2022-10-16T00:15:12;99544.88;;;21.21;100.00
23733;BME280;12047;53.450;-2.286;2022-10-16T00:20:13;99543.53;;;21.12;100.00
23733;BME280;12047;53.450;-2.286;2022-10-16T00:25:14;99565.53;;;21.56;100.00
23733;BME280;12047;53.450;-2.286;2022-10-16T00:30:14;99561.34;;;21.13;100.00
23733;BME280;12047;53.450;-2.286;2022-10-16T00:35:15;99562.63;;;20.87;100.00
23733;BME280;12047;53.450;-2.286;2022-10-16T00:40:16;99568.59;;;20.89;100.00
23733;BME280;12047;53.450;-2.286;2022-10-16T00:45:17;99579.03;;;21.09;100.00
23733;BME280;12047;53.450;-2.286;2022-10-16T00:50:30;99571.72;;;20.33;100.00
23733;BME280;12047;53.450;-2.286;2022-10-16T00:55:31;99580.31;;;21.53;100.00
23733;BME280;12047;53.450;-2.286;2022-10-16T01:00:32;99579.41;;;21.24;100.00
23733;BME280;12047;53.450;-2.286;2022-10-16T01:05:44;99595.97;;;20.15;100.00
23733;BME280;12047;53.450;-2.286;2022-10-16T01:10:54;99593.28;;;20.75;100.00
23733;BME280;12047;53.450;-2.286;2022-10-16T01:16:18;99610.72;;;20.42;100.00
23733;BME280;12047;53.450;-2.286;2022-10-16T01:21:29;99605.63;;;21.29;100.00
23733;BME280;12047;53.450;-2.286;2022-10-16T01:31:55;99620.13;;;21.16;100.00
23733;BME280;12047;53.450;-2.286;2022-10-16T01:37:02;99635.63;;;20.79;100.00
23733;BME280;12047;53.450;-2.286;2022-10-16T01:42:12;99637.81;;;21.00;100.00
23733;BME280;12047;53.450;-2.286;2022-10-16T01:47:15;99654.47;;;20.67;100.00
23733;BME280;12047;53.450;-2.286;2022-10-16T01:52:18;99666.69;;;21.35;100.00
23733;BME280;12047;53.450;-2.286;2022-10-16T01:57:21;99675.25;;;20.60;100.00
23733;BME280;12047;53.450;-2.286;2022-10-16T02:02:22;99685.78;;;21.45;98.00
23733;BME280;12047;53.450;-2.286;2022-10-16T02:07:26;99698.34;;;21.51;97.97
23733;BME280;12047;53.450;-2.286;2022-10-16T02:12:30;99709.13;;;21.51;96.29
23733;BME280;12047;53.450;-2.286;2022-10-16T02:17:32;99722.59;;;21.51;96.62
23733;BME280;12047;53.450;-2.286;2022-10-16T02:22:39;99725.50;;;21.61;94.55
23733;BME280;12047;53.450;-2.286;2022-10-16T02:27:57;99741.88;;;22.42;92.02
23733;BME280;12047;53.450;-2.286;2022-10-16T02:32:59;99756.38;;;22.12;91.97
23733;BME280;12047;53.450;-2.286;2022-10-16T02:38:01;99775.19;;;21.42;89.51
23733;BME280;12047;53.450;-2.286;2022-10-16T02:43:03;99779.59;;;22.13;89.94
23733;BME280;12047;53.450;-2.286;2022-10-16T02:48:05;99800.03;;;21.44;92.11
23733;BME280;12047;53.450;-2.286;2022-10-16T02:53:05;99809.41;;;21.53;91.24
23733;BME280;12047;53.450;-2.286;2022-10-16T02:58:06;99813.72;;;22.19;87.94
23733;BME280;12047;53.450;-2.286;2022-10-16T03:03:06;99818.41;;;22.47;86.65
23733;BME280;12047;53.450;-2.286;2022-10-16T03:08:07;99828.13;;;22.48;85.06
23733;BME280;12047;53.450;-2.286;2022-10-16T03:13:07;99836.53;;;21.10;87.77
23733;BME280;12047;53.450;-2.286;2022-10-16T03:18:08;99847.34;;;21.40;87.81
23733;BME280;12047;53.450;-2.286;2022-10-16T03:23:08;99872.19;;;20.94;88.12
23733;BME280;12047;53.450;-2.286;2022-10-16T03:28:09;99894.69;;;20.99;86.67
23733;BME280;12047;53.450;-2.286;2022-10-16T03:33:09;99908.75;;;21.01;86.75
23733;BME280;12047;53.450;-2.286;2022-10-16T03:38:10;99920.34;;;22.10;82.63
23733;BME280;12047;53.450;-2.286;2022-10-16T03:43:11;99935.03;;;21.24;82.48
23733;BME280;12047;53.450;-2.286;2022-10-16T03:48:11;99936.75;;;21.79;81.55
23733;BME280;12047;53.450;-2.286;2022-10-16T03:53:12;99944.38;;;21.70;80.24
23733;BME280;12047;53.450;-2.286;2022-10-16T03:58:12;99962.34;;;21.76;81.08
23733;BME280;12047;53.450;-2.286;2022-10-16T04:03:14;99992.03;;;21.39;79.35
23733;BME280;12047;53.450;-2.286;2022-10-16T04:08:14;100003.94;;;20.70;80.37
23733;BME280;12047;53.450;-2.286;2022-10-16T04:13:15;100006.50;;;20.59;80.19
23733;BME280;12047;53.450;-2.286;2022-10-16T04:18:16;100019.25;;;20.45;81.95
23733;BME280;12047;53.450;-2.286;2022-10-16T04:23:16;100024.75;;;20.57;82.11
23733;BME280;12047;53.450;-2.286;2022-10-16T04:28:16;100041.22;;;21.53;80.38
23733;BME280;12047;53.450;-2.286;2022-10-16T04:33:17;100059.63;;;21.38;80.30
23733;BME280;12047;53.450;-2.286;2022-10-16T04:38:17;100055.19;;;21.80;80.68
23733;BME280;12047;53.450;-2.286;2022-10-16T04:43:18;100073.09;;;21.56;80.18
23733;BME280;12047;53.450;-2.286;2022-10-16T04:48:19;100084.50;;;21.77;78.81
23733;BME280;12047;53.450;-2.286;2022-10-16T04:53:19;100088.22;;;22.12;77.85
23733;BME280;12047;53.450;-2.286;2022-10-16T04:58:20;100101.66;;;20.01;83.65
23733;BME280;12047;53.450;-2.286;2022-10-16T05:03:20;100110.34;;;21.48;80.44
23733;BME280;12047;53.450;-2.286;2022-10-16T05:08:21;100126.44;;;21.72;78.83
23733;BME280;12047;53.450;-2.286;2022-10-16T05:13:22;100129.38;;;21.03;79.71
23733;BME280;12047;53.450;-2.286;2022-10-16T05:18:23;100141.34;;;20.06;81.56
23733;BME280;12047;53.450;-2.286;2022-10-16T05:23:24;100155.53;;;19.68;83.65
23733;BME280;12047;53.450;-2.286;2022-10-16T05:28:25;100171.09;;;20.11;82.71
23733;BME280;12047;53.450;-2.286;2022-10-16T05:33:26;100180.09;;;20.36;81.24
23733;BME280;12047;53.450;-2.286;2022-10-16T05:38:27;100186.13;;;20.38;79.08
23733;BME280;12047;53.450;-2.286;2022-10-16T05:43:28;100204.41;;;20.10;78.63
23733;BME280;12047;53.450;-2.286;2022-10-16T05:48:31;100221.56;;;20.22;79.79
23733;BME280;12047;53.450;-2.286;2022-10-16T05:53:34;100229.78;;;20.34;78.41
23733;BME280;12047;53.450;-2.286;2022-10-16T05:58:36;100236.25;;;20.20;80.47
23733;BME280;12047;53.450;-2.286;2022-10-16T06:03:37;100250.22;;;19.24;80.70
23733;BME280;12047;53.450;-2.286;2022-10-16T06:08:38;100253.66;;;20.11;80.52
23733;BME280;12047;53.450;-2.286;2022-10-16T06:13:39;100254.75;;;19.83;80.36
23733;BME280;12047;53.450;-2.286;2022-10-16T06:18:42;100256.81;;;19.94;79.65
23733;BME280;12047;53.450;-2.286;2022-10-16T06:23:42;100259.50;;;19.88;80.06
23733;BME280;12047;53.450;-2.286;2022-10-16T06:28:43;100268.41;;;19.82;80.99
23733;BME280;12047;53.450;-2.286;2022-10-16T06:33:43;100286.19;;;19.50;79.90
23733;BME280;12047;53.450;-2.286;2022-10-16T06:38:46;100288.47;;;19.92;80.34
23733;BME280;12047;53.450;-2.286;2022-10-16T06:43:47;100292.72;;;19.01;82.47
23733;BME280;12047;53.450;-2.286;2022-10-16T06:48:48;100316.59;;;19.63;81.22
23733;BME280;12047;53.450;-2.286;2022-10-16T06:53:51;100338.28;;;20.15;78.82
23733;BME280;12047;53.450;-2.286;2022-10-16T06:58:53;100335.19;;;19.58;79.57
23733;BME280;12047;53.450;-2.286;2022-10-16T07:03:54;100347.94;;;19.36;80.74
23733;BME280;12047;53.450;-2.286;2022-10-16T07:08:54;100366.25;;;19.07;81.68
23733;BME280;12047;53.450;-2.286;2022-10-16T07:13:55;100376.75;;;18.95;80.67
23733;BME280;12047;53.450;-2.286;2022-10-16T07:18:57;100385.19;;;19.46;80.52
23733;BME280;12047;53.450;-2.286;2022-10-16T07:23:59;100395.38;;;19.10;84.99
23733;BME280;12047;53.450;-2.286;2022-10-16T07:29:01;100409.03;;;20.28;78.82
23733;BME280;12047;53.450;-2.286;2022-10-16T07:34:02;100421.72;;;21.82;76.59
23733;BME280;12047;53.450;-2.286;2022-10-16T07:39:03;100446.75;;;21.95;75.82
23733;BME280;12047;53.450;-2.286;2022-10-16T07:44:04;100469.22;;;20.80;77.65
23733;BME280;12047;53.450;-2.286;2022-10-16T07:49:04;100478.56;;;21.80;76.18
23733;BME280;12047;53.450;-2.286;2022-10-16T07:54:05;100490.63;;;21.39;76.25
23733;BME280;12047;53.450;-2.286;2022-10-16T07:59:06;100513.50;;;20.05;79.01
23733;BME280;12047;53.450;-2.286;2022-10-16T08:04:07;100517.72;;;20.67;79.24
23733;BME280;12047;53.450;-2.286;2022-10-16T08:09:11;100514.91;;;22.16;74.37
23733;BME280;12047;53.450;-2.286;2022-10-16T08:14:12;100524.78;;;22.28;75.52
23733;BME280;12047;53.450;-2.286;2022-10-16T08:19:13;100538.59;;;21.69;76.34
23733;BME280;12047;53.450;-2.286;2022-10-16T08:24:15;100548.16;;;22.66;74.54
23733;BME280;12047;53.450;-2.286;2022-10-16T08:29:16;100556.94;;;21.92;77.42
23733;BME280;12047;53.450;-2.286;2022-10-16T08:34:16;100563.91;;;22.44;75.72
23733;BME280;12047;53.450;-2.286;2022-10-16T08:39:17;100567.28;;;23.32;72.88
23733;BME280;12047;53.450;-2.286;2022-10-16T08:49:34;100593.06;;;21.33;76.86
23733;BME280;12047;53.450;-2.286;2022-10-16T08:54:42;100605.53;;;22.30;77.52
23733;BME280;12047;53.450;-2.286;2022-10-16T08:59:43;100613.44;;;22.56;76.63
23733;BME280;12047;53.450;-2.286;2022-10-16T09:15:55;100620.44;;;22.01;76.00
23733;BME280;12047;53.450;-2.286;2022-10-16T09:26:10;100634.84;;;22.58;77.55
23733;BME280;12047;53.450;-2.286;2022-10-16T09:31:19;100632.59;;;22.86;76.34
23733;BME280;12047;53.450;-2.286;2022-10-16T09:36:21;100635.97;;;23.86;74.55
23733;BME280;12047;53.450;-2.286;2022-10-16T09:41:23;100643.53;;;23.41;73.99
23733;BME280;12047;53.450;-2.286;2022-10-16T09:51:37;100637.97;;;22.55;73.69
23733;BME280;12047;53.450;-2.286;2022-10-16T09:56:38;100646.13;;;22.80;74.46
23733;BME280;12047;53.450;-2.286;2022-10-16T10:01:55;100646.25;;;22.60;74.17
23733;BME280;12047;53.450;-2.286;2022-10-16T10:06:56;100662.72;;;23.33;74.36
23733;BME280;12047;53.450;-2.286;2022-10-16T10:12:02;100658.09;;;23.40;74.91
23733;BME280;12047;53.450;-2.286;2022-10-16T10:28:05;100664.59;;;23.57;72.14
23733;BME280;12047;53.450;-2.286;2022-10-16T10:38:56;100673.59;;;23.01;72.20
23733;BME280;12047;53.450;-2.286;2022-10-16T11:09:58;100698.41;;;24.21;68.40
23733;BME280;12047;53.450;-2.286;2022-10-16T11:15:11;100699.19;;;23.92;68.10
23733;BME280;12047;53.450;-2.286;2022-10-16T11:20:18;100699.47;;;23.84;67.76
23733;BME280;12047;53.450;-2.286;2022-10-16T11:25:29;100704.41;;;24.05;66.93
23733;BME280;12047;53.450;-2.286;2022-10-16T11:30:39;100708.03;;;23.37;65.68
23733;BME280;12047;53.450;-2.286;2022-10-16T11:36:08;100711.22;;;23.96;66.74
23733;BME280;12047;53.450;-2.286;2022-10-16T11:46:24;100698.81;;;23.88;65.46
23733;BME280;12047;53.450;-2.286;2022-10-16T11:51:35;100694.13;;;24.14;62.61
23733;BME280;12047;53.450;-2.286;2022-10-16T11:56:38;100692.63;;;24.66;62.46
23733;BME280;12047;53.450;-2.286;2022-10-16T12:01:49;100689.69;;;24.67;59.96
23733;BME280;12047;53.450;-2.286;2022-10-16T12:06:59;100691.34;;;24.80;60.51
23733;BME280;12047;53.450;-2.286;2022-10-16T12:12:00;100686.44;;;24.29;60.57
23733;BME280;12047;53.450;-2.286;2022-10-16T12:17:25;100682.72;;;25.13;59.94
23733;BME280;12047;53.450;-2.286;2022-10-16T12:22:27;100697.03;;;24.90;60.41
23733;BME280;12047;53.450;-2.286;2022-10-16T12:27:31;100713.50;;;25.19;59.87
23733;BME280;12047;53.450;-2.286;2022-10-16T12:32:37;100715.78;;;24.92;60.23
23733;BME280;12047;53.450;-2.286;2022-10-16T12:37:39;100726.41;;;24.93;60.29
23733;BME280;12047;53.450;-2.286;2022-10-16T12:42:40;100735.19;;;25.19;59.45
23733;BME280;12047;53.450;-2.286;2022-10-16T12:47:49;100740.13;;;25.10;60.29
23733;BME280;12047;53.450;-2.286;2022-10-16T12:52:50;100735.41;;;24.27;60.43
23733;BME280;12047;53.450;-2.286;2022-10-16T12:58:10;100741.59;;;24.34;61.55
23733;BME280;12047;53.450;-2.286;2022-10-16T13:03:45;100736.97;;;24.53;61.79
23733;BME280;12047;53.450;-2.286;2022-10-16T13:14:44;100747.97;;;24.40;60.94
23733;BME280;12047;53.450;-2.286;2022-10-16T13:20:12;100753.00;;;25.15;60.79
23733;BME280;12047;53.450;-2.286;2022-10-16T13:30:45;100750.88;;;24.57;61.03
23733;BME280;12047;53.450;-2.286;2022-10-16T13:47:05;100735.91;;;24.84;59.46
23733;BME280;12047;53.450;-2.286;2022-10-16T13:52:15;100727.38;;;24.69;58.20
23733;BME280;12047;53.450;-2.286;2022-10-16T13:57:17;100724.91;;;25.09;57.31
23733;BME280;12047;53.450;-2.286;2022-10-16T14:02:29;100730.47;;;25.26;57.01
23733;BME280;12047;53.450;-2.286;2022-10-16T14:13:18;100734.38;;;25.30;59.29
23733;BME280;12047;53.450;-2.286;2022-10-16T14:18:24;100727.44;;;25.57;57.79
23733;BME280;12047;53.450;-2.286;2022-10-16T14:23:35;100730.13;;;24.81;57.89
23733;BME280;12047;53.450;-2.286;2022-10-16T14:28:40;100715.50;;;24.70;58.64
23733;BME280;12047;53.450;-2.286;2022-10-16T14:33:41;100723.84;;;24.68;59.38
23733;BME280;12047;53.450;-2.286;2022-10-16T14:38:55;100734.09;;;24.66;58.65
23733;BME280;12047;53.450;-2.286;2022-10-16T14:44:04;100724.91;;;24.67;59.81
23733;BME280;12047;53.450;-2.286;2022-10-16T14:49:19;100725.97;;;24.78;59.47
23733;BME280;12047;53.450;-2.286;2022-10-16T14:54:21;100720.19;;;25.04;60.24
23733;BME280;12047;53.450;-2.286;2022-10-16T14:59:39;100707.59;;;23.65;59.32
23733;BME280;12047;53.450;-2.286;2022-10-16T15:04:46;100701.72;;;23.87;59.32
23733;BME280;12047;53.450;-2.286;2022-10-16T15:09:47;100692.75;;;23.25;60.06
23733;BME280;12047;53.450;-2.286;2022-10-16T15:14:47;100684.69;;;23.43;60.59
23733;BME280;12047;53.450;-2.286;2022-10-16T15:19:48;100687.88;;;24.61;60.29
23733;BME280;12047;53.450;-2.286;2022-10-16T15:24:48;100687.66;;;25.04;59.38
23733;BME280;12047;53.450;-2.286;2022-10-16T15:29:49;100688.97;;;25.25;59.06
23733;BME280;12047;53.450;-2.286;2022-10-16T15:34:50;100675.47;;;23.51;58.21
23733;BME280;12047;53.450;-2.286;2022-10-16T15:39:51;100671.53;;;24.68;57.74
23733;BME280;12047;53.450;-2.286;2022-10-16T15:44:51;100675.31;;;24.67;59.26
23733;BME280;12047;53.450;-2.286;2022-10-16T15:49:52;100675.34;;;23.64;61.31
23733;BME280;12047;53.450;-2.286;2022-10-16T15:54:53;100664.78;;;24.29;60.75
23733;BME280;12047;53.450;-2.286;2022-10-16T15:59:53;100665.16;;;24.32;61.37
23733;BME280;12047;53.450;-2.286;2022-10-16T16:04:54;100659.69;;;24.02;61.56
23733;BME280;12047;53.450;-2.286;2022-10-16T16:09:55;100651.56;;;24.02;61.30
23733;BME280;12047;53.450;-2.286;2022-10-16T16:14:56;100648.25;;;23.46;61.77
23733;BME280;12047;53.450;-2.286;2022-10-16T16:19:56;100631.16;;;22.84;62.10
23733;BME280;12047;53.450;-2.286;2022-10-16T16:24:57;100627.06;;;22.43;63.49
23733;BME280;12047;53.450;-2.286;2022-10-16T16:29:58;100627.34;;;22.60;63.57
23733;BME280;12047;53.450;-2.286;2022-10-16T16:34:59;100624.41;;;22.30;63.34
23733;BME280;12047;53.450;-2.286;2022-10-16T16:40:11;100604.34;;;23.07;63.27
23733;BME280;12047;53.450;-2.286;2022-10-16T16:45:12;100597.16;;;22.69;63.05
23733;BME280;12047;53.450;-2.286;2022-10-16T16:50:13;100592.72;;;22.25;63.38
23733;BME280;12047;53.450;-2.286;2022-10-16T16:55:13;100595.25;;;22.77;62.68
23733;BME280;12047;53.450;-2.286;2022-10-16T17:00:14;100591.53;;;23.21;62.18
23733;BME280;12047;53.450;-2.286;2022-10-16T17:05:15;100588.56;;;22.79;62.22
23733;BME280;12047;53.450;-2.286;2022-10-16T17:10:16;100578.28;;;22.00;62.93
23733;BME280;12047;53.450;-2.286;2022-10-16T17:15:17;100575.00;;;22.29;62.16
23733;BME280;12047;53.450;-2.286;2022-10-16T17:20:18;100571.31;;;22.80;62.36
23733;BME280;12047;53.450;-2.286;2022-10-16T17:25:19;100569.59;;;21.98;63.69
23733;BME280;12047;53.450;-2.286;2022-10-16T17:30:21;100571.88;;;21.94;63.50
23733;BME280;12047;53.450;-2.286;2022-10-16T17:35:23;100572.38;;;22.79;63.96
23733;BME280;12047;53.450;-2.286;2022-10-16T17:40:26;100573.03;;;20.76;68.40
23733;BME280;12047;53.450;-2.286;2022-10-16T17:45:27;100559.78;;;19.81;68.93
23733;BME280;12047;53.450;-2.286;2022-10-16T17:50:39;100542.16;;;21.63;68.65
23733;BME280;12047;53.450;-2.286;2022-10-16T17:55:43;100533.41;;;21.74;66.32
23733;BME280;12047;53.450;-2.286;2022-10-16T18:00:44;100520.97;;;22.36;65.12
23733;BME280;12047;53.450;-2.286;2022-10-16T18:05:46;100514.66;;;22.49;64.94
23733;BME280;12047;53.450;-2.286;2022-10-16T18:10:48;100511.34;;;21.84;65.78
23733;BME280;12047;53.450;-2.286;2022-10-16T18:16:10;100511.66;;;21.62;64.41
23733;BME280;12047;53.450;-2.286;2022-10-16T18:21:14;100503.94;;;21.15;66.43
23733;BME280;12047;53.450;-2.286;2022-10-16T18:26:15;100508.56;;;20.94;67.06
23733;BME280;12047;53.450;-2.286;2022-10-16T18:31:16;100507.16;;;20.59;66.22
23733;BME280;12047;53.450;-2.286;2022-10-16T18:36:25;100505.50;;;20.64;67.97
23733;BME280;12047;53.450;-2.286;2022-10-16T18:41:28;100510.00;;;21.61;67.98
23733;BME280;12047;53.450;-2.286;2022-10-16T18:46:32;100509.56;;;21.06;67.82
23733;BME280;12047;53.450;-2.286;2022-10-16T18:51:43;100491.84;;;21.50;67.45
23733;BME280;12047;53.450;-2.286;2022-10-16T18:56:44;100481.50;;;21.79;68.06
23733;BME280;12047;53.450;-2.286;2022-10-16T19:01:45;100484.44;;;21.77;67.83
23733;BME280;12047;53.450;-2.286;2022-10-16T19:06:49;100467.75;;;21.87;68.52
23733;BME280;12047;53.450;-2.286;2022-10-16T19:11:51;100467.69;;;21.62;69.21
23733;BME280;12047;53.450;-2.286;2022-10-16T19:16:52;100458.19;;;22.22;68.68
23733;BME280;12047;53.450;-2.286;2022-10-16T19:21:52;100463.78;;;21.58;71.56
23733;BME280;12047;53.450;-2.286;2022-10-16T19:27:13;100440.84;;;22.12;73.51
23733;BME280;12047;53.450;-2.286;2022-10-16T19:32:14;100421.06;;;21.55;79.55
23733;BME280;12047;53.450;-2.286;2022-10-16T19:37:14;100416.56;;;22.55;76.92
23733;BME280;12047;53.450;-2.286;2022-10-16T19:42:15;100409.91;;;22.76;77.03
23733;BME280;12047;53.450;-2.286;2022-10-16T19:47:15;100407.56;;;22.43;78.24
23733;BME280;12047;53.450;-2.286;2022-10-16T19:52:16;100405.75;;;22.36;78.79
23733;BME280;12047;53.450;-2.286;2022-10-16T19:57:16;100395.34;;;20.30;82.32
23733;BME280;12047;53.450;-2.286;2022-10-16T20:02:17;100391.25;;;22.31;81.49
23733;BME280;12047;53.450;-2.286;2022-10-16T20:07:18;100373.09;;;21.95;83.65
23733;BME280;12047;53.450;-2.286;2022-10-16T20:12:20;100349.81;;;22.62;82.29
23733;BME280;12047;53.450;-2.286;2022-10-16T20:17:20;100348.44;;;22.34;84.05
23733;BME280;12047;53.450;-2.286;2022-10-16T20:22:21;100346.34;;;22.55;83.28
23733;BME280;12047;53.450;-2.286;2022-10-16T20:27:22;100339.91;;;22.56;83.35
23733;BME280;12047;53.450;-2.286;2022-10-16T20:32:24;100324.47;;;22.63;85.37
23733;BME280;12047;53.450;-2.286;2022-10-16T20:37:24;100322.75;;;22.87;85.64
23733;BME280;12047;53.450;-2.286;2022-10-16T20:42:25;100318.53;;;23.21;86.72
23733;BME280;12047;53.450;-2.286;2022-10-16T20:47:25;100307.44;;;22.62;90.29
23733;BME280;12047;53.450;-2.286;2022-10-16T20:52:26;100295.22;;;22.60;95.10
23733;BME280;12047;53.450;-2.286;2022-10-16T20:57:26;100285.44;;;22.04;98.89
23733;BME280;12047;53.450;-2.286;2022-10-16T21:02:27;100279.78;;;22.30;100.00
23733;BME280;12047;53.450;-2.286;2022-10-16T21:07:28;100253.09;;;22.89;100.00
23733;BME280;12047;53.450;-2.286;2022-10-16T21:12:28;100252.34;;;22.33;100.00
23733;BME280;12047;53.450;-2.286;2022-10-16T21:17:30;100234.47;;;21.78;100.00
23733;BME280;12047;53.450;-2.286;2022-10-16T21:22:31;100234.72;;;22.79;100.00
23733;BME280;12047;53.450;-2.286;2022-10-16T21:27:39;100228.13;;;22.45;100.00
23733;BME280;12047;53.450;-2.286;2022-10-16T21:32:39;100224.19;;;21.86;100.00
23733;BME280;12047;53.450;-2.286;2022-10-16T21:37:40;100218.91;;;23.24;100.00
23733;BME280;12047;53.450;-2.286;2022-10-16T21:42:41;100223.69;;;22.32;100.00
23733;BME280;12047;53.450;-2.286;2022-10-16T21:47:41;100205.16;;;22.84;100.00
23733;BME280;12047;53.450;-2.286;2022-10-16T21:52:42;100200.63;;;21.57;100.00
23733;BME280;12047;53.450;-2.286;2022-10-16T21:57:43;100197.16;;;21.93;100.00
23733;BME280;12047;53.450;-2.286;2022-10-16T22:02:44;100178.06;;;21.94;100.00
23733;BME280;12047;53.450;-2.286;2022-10-16T22:07:44;100188.69;;;22.74;100.00
23733;BME280;12047;53.450;-2.286;2022-10-16T22:12:45;100191.16;;;22.76;100.00
23733;BME280;12047;53.450;-2.286;2022-10-16T22:17:46;100178.00;;;21.39;100.00
23733;BME280;12047;53.450;-2.286;2022-10-16T22:22:46;100171.41;;;23.17;100.00
23733;BME280;12047;53.450;-2.286;2022-10-16T22:27:47;100161.47;;;22.87;100.00
23733;BME280;12047;53.450;-2.286;2022-10-16T22:32:47;100167.09;;;22.56;100.00
23733;BME280;12047;53.450;-2.286;2022-10-16T22:37:48;100161.56;;;20.60;100.00
23733;BME280;12047;53.450;-2.286;2022-10-16T22:42:48;100155.19;;;21.60;100.00
23733;BME280;12047;53.450;-2.286;2022-10-16T22:47:49;100152.38;;;22.70;100.00
23733;BME280;12047;53.450;-2.286;2022-10-16T22:52:49;100159.91;;;25.05;100.00
23733;BME280;12047;53.450;-2.286;2022-10-16T22:57:50;100148.94;;;23.86;100.00
23733;BME280;12047;53.450;-2.286;2022-10-16T23:02:51;100160.50;;;23.70;100.00
23733;BME280;12047;53.450;-2.286;2022-10-16T23:07:51;100166.59;;;24.86;100.00
23733;BME280;12047;53.450;-2.286;2022-10-16T23:12:52;100175.78;;;24.39;100.00
23733;BME280;12047;53.450;-2.286;2022-10-16T23:17:52;100149.53;;;25.35;100.00
23733;BME280;12047;53.450;-2.286;2022-10-16T23:22:53;100161.34;;;24.51;100.00
23733;BME280;12047;53.450;-2.286;2022-10-16T23:27:53;100162.78;;;24.98;100.00
23733;BME280;12047;53.450;-2.286;2022-10-16T23:32:54;100163.63;;;24.87;100.00
23733;BME280;12047;53.450;-2.286;2022-10-16T23:37:55;100172.66;;;25.60;100.00
23733;BME280;12047;53.450;-2.286;2022-10-16T23:43:09;100169.78;;;25.50;100.00
23733;BME280;12047;53.450;-2.286;2022-10-16T23:48:10;100156.78;;;25.85;100.00
23733;BME280;12047;53.450;-2.286;2022-10-16T23:53:11;100148.06;;;25.83;100.00
23733;BME280;12047;53.450;-2.286;2022-10-16T23:58:11;100127.63;;;27.05;100.00
